sensor_id;sensor_type;location;lat;lon;timestamp;temperature;humidity
15455;DHT22;21057;51.024;7.540;2023-08-31T00:01:17;13.40;99.90
15455;DHT22;21057;51.024;7.540;2023-08-31T00:03:44;13.40;99.90
15455;DHT22;21057;51.024;7.540;2023-08-31T00:06:11;13.40;99.90
15455;DHT22;21057;51.024;7.540;2023-08-31T00:08:38;13.30;99.90
15455;DHT22;21057;51.024;7.540;2023-08-31T00:11:05;13.30;99.90
15455;DHT22;21057;51.024;7.540;2023-08-31T00:13:33;13.20;99.90
15455;DHT22;21057;51.024;7.540;2023-08-31T00:16:00;13.20;99.90
15455;DHT22;21057;51.024;7.540;2023-08-31T00:18:27;13.20;99.90
15455;DHT22;21057;51.024;7.540;2023-08-31T00:20:54;13.10;99.90
15455;DHT22;21057;51.024;7.540;2023-08-31T00:23:21;13.20;99.90
15455;DHT22;21057;51.024;7.540;2023-08-31T00:25:48;13.10;99.90
15455;DHT22;21057;51.024;7.540;2023-08-31T00:28:16;13.20;99.90
15455;DHT22;21057;51.024;7.540;2023-08-31T00:30:45;13.20;99.90
15455;DHT22;21057;51.024;7.540;2023-08-31T00:33:12;13.20;99.90
15455;DHT22;21057;51.024;7.540;2023-08-31T00:35:38;13.20;99.90
15455;DHT22;21057;51.024;7.540;2023-08-31T00:38:11;13.30;99.90
15455;DHT22;21057;51.024;7.540;2023-08-31T00:40:39;13.30;99.90
15455;DHT22;21057;51.024;7.540;2023-08-31T00:43:08;13.40;99.90
15455;DHT22;21057;51.024;7.540;2023-08-31T00:45:35;13.50;99.90
15455;DHT22;21057;51.024;7.540;2023-08-31T00:48:04;13.60;99.90
15455;DHT22;21057;51.024;7.540;2023-08-31T00:50:31;13.60;99.90
15455;DHT22;21057;51.024;7.540;2023-08-31T00:52:58;13.70;99.90
15455;DHT22;21057;51.024;7.540;2023-08-31T00:55:25;13.70;99.90
15455;DHT22;21057;51.024;7.540;2023-08-31T00:57:52;13.70;99.90
15455;DHT22;21057;51.024;7.540;2023-08-31T01:00:19;13.70;99.90
15455;DHT22;21057;51.024;7.540;2023-08-31T01:02:59;13.70;99.90
15455;DHT22;21057;51.024;7.540;2023-08-31T01:05:39;13.80;99.90
15455;DHT22;21057;51.024;7.540;2023-08-31T01:08:19;13.80;99.90
15455;DHT22;21057;51.024;7.540;2023-08-31T01:10:58;13.90;99.90
15455;DHT22;21057;51.024;7.540;2023-08-31T01:13:28;13.90;99.90
15455;DHT22;21057;51.024;7.540;2023-08-31T01:16:05;13.90;99.90
15455;DHT22;21057;51.024;7.540;2023-08-31T01:18:34;13.80;99.90
15455;DHT22;21057;51.024;7.540;2023-08-31T01:21:11;13.70;99.90
15455;DHT22;21057;51.024;7.540;2023-08-31T01:23:52;13.70;99.90
15455;DHT22;21057;51.024;7.540;2023-08-31T01:26:19;13.70;99.90
15455;DHT22;21057;51.024;7.540;2023-08-31T01:28:47;13.50;99.90
15455;DHT22;21057;51.024;7.540;2023-08-31T01:31:14;13.40;99.90
15455;DHT22;21057;51.024;7.540;2023-08-31T01:33:41;13.40;99.90
15455;DHT22;21057;51.024;7.540;2023-08-31T01:36:14;13.30;99.90
15455;DHT22;21057;51.024;7.540;2023-08-31T01:38:48;13.30;99.90
15455;DHT22;21057;51.024;7.540;2023-08-31T01:41:19;13.40;99.90
15455;DHT22;21057;51.024;7.540;2023-08-31T01:43:48;13.50;99.90
15455;DHT22;21057;51.024;7.540;2023-08-31T01:46:15;13.50;99.90
15455;DHT22;21057;51.024;7.540;2023-08-31T01:48:43;13.50;99.90
15455;DHT22;21057;51.024;7.540;2023-08-31T01:51:10;13.60;99.90
15455;DHT22;21057;51.024;7.540;2023-08-31T01:53:37;13.60;99.90
15455;DHT22;21057;51.024;7.540;2023-08-31T01:56:05;13.70;99.90
15455;DHT22;21057;51.024;7.540;2023-08-31T01:58:33;13.70;99.90
15455;DHT22;21057;51.024;7.540;2023-08-31T02:01:00;13.70;99.90
15455;DHT22;21057;51.024;7.540;2023-08-31T02:03:27;13.80;99.90
15455;DHT22;21057;51.024;7.540;2023-08-31T02:05:53;13.90;99.90
15455;DHT22;21057;51.024;7.540;2023-08-31T02:08:20;13.80;99.90
15455;DHT22;21057;51.024;7.540;2023-08-31T02:10:47;13.80;99.90
15455;DHT22;21057;51.024;7.540;2023-08-31T02:13:14;13.80;99.90
15455;DHT22;21057;51.024;7.540;2023-08-31T02:15:43;13.80;99.90
15455;DHT22;21057;51.024;7.540;2023-08-31T02:18:10;13.90;99.90
15455;DHT22;21057;51.024;7.540;2023-08-31T02:20:37;13.90;99.90
15455;DHT22;21057;51.024;7.540;2023-08-31T02:23:04;13.80;99.90
15455;DHT22;21057;51.024;7.540;2023-08-31T02:25:31;13.80;99.90
15455;DHT22;21057;51.024;7.540;2023-08-31T02:27:58;13.90;99.90
15455;DHT22;21057;51.024;7.540;2023-08-31T02:30:25;14.00;99.90
15455;DHT22;21057;51.024;7.540;2023-08-31T02:32:53;13.90;99.90
15455;DHT22;21057;51.024;7.540;2023-08-31T02:35:20;13.90;99.90
15455;DHT22;21057;51.024;7.540;2023-08-31T02:37:47;13.90;99.90
15455;DHT22;21057;51.024;7.540;2023-08-31T02:40:14;13.90;99.90
15455;DHT22;21057;51.024;7.540;2023-08-31T02:42:41;13.90;99.90
15455;DHT22;21057;51.024;7.540;2023-08-31T02:45:08;14.00;99.90
15455;DHT22;21057;51.024;7.540;2023-08-31T02:47:35;14.00;99.90
15455;DHT22;21057;51.024;7.540;2023-08-31T02:50:05;14.20;99.90
15455;DHT22;21057;51.024;7.540;2023-08-31T02:52:32;14.00;99.90
15455;DHT22;21057;51.024;7.540;2023-08-31T02:54:59;14.10;99.90
15455;DHT22;21057;51.024;7.540;2023-08-31T02:57:26;14.00;99.90
15455;DHT22;21057;51.024;7.540;2023-08-31T02:59:53;13.90;99.90
15455;DHT22;21057;51.024;7.540;2023-08-31T03:02:19;13.90;99.90
15455;DHT22;21057;51.024;7.540;2023-08-31T03:04:47;13.80;99.90
15455;DHT22;21057;51.024;7.540;2023-08-31T03:07:16;14.00;99.90
15455;DHT22;21057;51.024;7.540;2023-08-31T03:09:48;13.90;99.90
15455;DHT22;21057;51.024;7.540;2023-08-31T03:12:15;13.80;99.90
15455;DHT22;21057;51.024;7.540;2023-08-31T03:14:41;13.80;99.90
15455;DHT22;21057;51.024;7.540;2023-08-31T03:17:08;14.00;99.90
15455;DHT22;21057;51.024;7.540;2023-08-31T03:19:35;14.00;99.90
15455;DHT22;21057;51.024;7.540;2023-08-31T03:22:02;13.90;99.90
15455;DHT22;21057;51.024;7.540;2023-08-31T03:24:31;13.90;99.90
15455;DHT22;21057;51.024;7.540;2023-08-31T03:26:58;13.90;99.90
15455;DHT22;21057;51.024;7.540;2023-08-31T03:29:25;13.90;99.90
15455;DHT22;21057;51.024;7.540;2023-08-31T03:31:54;13.90;99.90
15455;DHT22;21057;51.024;7.540;2023-08-31T03:34:21;13.80;99.90
15455;DHT22;21057;51.024;7.540;2023-08-31T03:36:47;13.90;99.90
15455;DHT22;21057;51.024;7.540;2023-08-31T03:39:15;13.90;99.90
15455;DHT22;21057;51.024;7.540;2023-08-31T03:41:44;13.90;99.90
15455;DHT22;21057;51.024;7.540;2023-08-31T03:44:11;14.00;99.90
15455;DHT22;21057;51.024;7.540;2023-08-31T03:46:38;13.90;99.90
15455;DHT22;21057;51.024;7.540;2023-08-31T03:49:05;13.90;99.90
15455;DHT22;21057;51.024;7.540;2023-08-31T03:51:32;13.90;99.90
15455;DHT22;21057;51.024;7.540;2023-08-31T03:53:58;14.00;99.90
15455;DHT22;21057;51.024;7.540;2023-08-31T03:56:25;13.80;99.90
15455;DHT22;21057;51.024;7.540;2023-08-31T03:58:54;13.80;99.90
15455;DHT22;21057;51.024;7.540;2023-08-31T04:01:21;13.70;99.90
15455;DHT22;21057;51.024;7.540;2023-08-31T04:03:48;13.90;99.90
15455;DHT22;21057;51.024;7.540;2023-08-31T04:06:15;13.90;99.90
15455;DHT22;21057;51.024;7.540;2023-08-31T04:08:42;13.80;99.90
15455;DHT22;21057;51.024;7.540;2023-08-31T04:11:09;13.60;99.90
15455;DHT22;21057;51.024;7.540;2023-08-31T04:13:36;13.70;99.90
15455;DHT22;21057;51.024;7.540;2023-08-31T04:16:05;13.80;99.90
15455;DHT22;21057;51.024;7.540;2023-08-31T04:18:31;13.80;99.90
15455;DHT22;21057;51.024;7.540;2023-08-31T04:21:01;13.70;99.90
15455;DHT22;21057;51.024;7.540;2023-08-31T04:23:28;13.60;99.90
15455;DHT22;21057;51.024;7.540;2023-08-31T04:25:55;13.70;99.90
15455;DHT22;21057;51.024;7.540;2023-08-31T04:28:23;13.70;99.90
15455;DHT22;21057;51.024;7.540;2023-08-31T04:30:50;13.60;99.90
15455;DHT22;21057;51.024;7.540;2023-08-31T04:33:19;13.70;99.90
15455;DHT22;21057;51.024;7.540;2023-08-31T04:35:48;13.80;99.90
15455;DHT22;21057;51.024;7.540;2023-08-31T04:38:15;13.80;99.90
15455;DHT22;21057;51.024;7.540;2023-08-31T04:40:42;13.80;99.90
15455;DHT22;21057;51.024;7.540;2023-08-31T04:43:10;13.80;99.90
15455;DHT22;21057;51.024;7.540;2023-08-31T04:45:37;13.90;99.90
15455;DHT22;21057;51.024;7.540;2023-08-31T04:48:04;13.90;99.90
15455;DHT22;21057;51.024;7.540;2023-08-31T04:50:32;14.00;99.90
15455;DHT22;21057;51.024;7.540;2023-08-31T04:52:59;14.00;99.90
15455;DHT22;21057;51.024;7.540;2023-08-31T04:55:26;14.00;99.90
15455;DHT22;21057;51.024;7.540;2023-08-31T04:57:53;13.90;99.90
15455;DHT22;21057;51.024;7.540;2023-08-31T05:00:19;13.90;99.90
15455;DHT22;21057;51.024;7.540;2023-08-31T05:02:46;14.00;99.90
15455;DHT22;21057;51.024;7.540;2023-08-31T05:05:13;13.90;99.90
15455;DHT22;21057;51.024;7.540;2023-08-31T05:07:41;13.90;99.90
15455;DHT22;21057;51.024;7.540;2023-08-31T05:10:09;14.00;99.90
15455;DHT22;21057;51.024;7.540;2023-08-31T05:12:36;14.00;99.90
15455;DHT22;21057;51.024;7.540;2023-08-31T05:15:04;13.90;99.90
15455;DHT22;21057;51.024;7.540;2023-08-31T05:17:31;13.90;99.90
15455;DHT22;21057;51.024;7.540;2023-08-31T05:19:58;13.90;99.90
15455;DHT22;21057;51.024;7.540;2023-08-31T05:22:25;14.00;99.90
15455;DHT22;21057;51.024;7.540;2023-08-31T05:24:53;13.80;99.90
15455;DHT22;21057;51.024;7.540;2023-08-31T05:27:19;13.90;99.90
15455;DHT22;21057;51.024;7.540;2023-08-31T05:29:46;13.90;99.90
15455;DHT22;21057;51.024;7.540;2023-08-31T05:32:13;13.90;99.90
15455;DHT22;21057;51.024;7.540;2023-08-31T05:34:40;13.90;99.90
15455;DHT22;21057;51.024;7.540;2023-08-31T05:37:07;13.90;99.90
15455;DHT22;21057;51.024;7.540;2023-08-31T05:39:34;13.90;99.90
15455;DHT22;21057;51.024;7.540;2023-08-31T05:42:02;13.80;99.90
15455;DHT22;21057;51.024;7.540;2023-08-31T05:44:29;13.90;99.90
15455;DHT22;21057;51.024;7.540;2023-08-31T05:46:56;13.90;99.90
15455;DHT22;21057;51.024;7.540;2023-08-31T05:49:22;13.90;99.90
15455;DHT22;21057;51.024;7.540;2023-08-31T05:51:49;14.00;99.90
15455;DHT22;21057;51.024;7.540;2023-08-31T05:54:17;14.10;99.90
15455;DHT22;21057;51.024;7.540;2023-08-31T05:56:44;14.20;99.90
15455;DHT22;21057;51.024;7.540;2023-08-31T05:59:12;14.30;99.90
15455;DHT22;21057;51.024;7.540;2023-08-31T06:01:38;14.20;99.90
15455;DHT22;21057;51.024;7.540;2023-08-31T06:04:05;14.00;99.90
15455;DHT22;21057;51.024;7.540;2023-08-31T06:06:32;14.00;99.90
15455;DHT22;21057;51.024;7.540;2023-08-31T06:08:59;13.90;99.90
15455;DHT22;21057;51.024;7.540;2023-08-31T06:11:26;14.10;99.90
15455;DHT22;21057;51.024;7.540;2023-08-31T06:13:53;14.10;99.90
15455;DHT22;21057;51.024;7.540;2023-08-31T06:16:21;14.10;99.90
15455;DHT22;21057;51.024;7.540;2023-08-31T06:18:48;14.20;99.90
15455;DHT22;21057;51.024;7.540;2023-08-31T06:21:15;14.10;99.90
15455;DHT22;21057;51.024;7.540;2023-08-31T06:23:42;14.20;99.90
15455;DHT22;21057;51.024;7.540;2023-08-31T06:26:08;14.30;99.90
15455;DHT22;21057;51.024;7.540;2023-08-31T06:28:35;14.40;99.90
15455;DHT22;21057;51.024;7.540;2023-08-31T06:31:02;14.50;99.90
15455;DHT22;21057;51.024;7.540;2023-08-31T06:33:31;14.60;99.90
15455;DHT22;21057;51.024;7.540;2023-08-31T06:35:57;14.60;99.90
15455;DHT22;21057;51.024;7.540;2023-08-31T06:38:24;14.40;99.90
15455;DHT22;21057;51.024;7.540;2023-08-31T06:40:51;14.50;99.90
15455;DHT22;21057;51.024;7.540;2023-08-31T06:43:21;14.30;99.90
15455;DHT22;21057;51.024;7.540;2023-08-31T06:45:47;14.30;99.90
15455;DHT22;21057;51.024;7.540;2023-08-31T06:48:14;14.30;99.90
15455;DHT22;21057;51.024;7.540;2023-08-31T06:50:42;14.50;99.90
15455;DHT22;21057;51.024;7.540;2023-08-31T06:53:09;14.60;99.90
15455;DHT22;21057;51.024;7.540;2023-08-31T06:55:36;14.60;99.90
15455;DHT22;21057;51.024;7.540;2023-08-31T06:58:04;14.50;99.90
15455;DHT22;21057;51.024;7.540;2023-08-31T07:00:31;14.70;99.90
15455;DHT22;21057;51.024;7.540;2023-08-31T07:02:59;14.70;99.90
15455;DHT22;21057;51.024;7.540;2023-08-31T07:05:26;14.60;99.90
15455;DHT22;21057;51.024;7.540;2023-08-31T07:07:56;14.50;99.90
15455;DHT22;21057;51.024;7.540;2023-08-31T07:10:23;14.60;99.90
15455;DHT22;21057;51.024;7.540;2023-08-31T07:12:50;14.70;99.90
15455;DHT22;21057;51.024;7.540;2023-08-31T07:15:17;14.80;99.90
15455;DHT22;21057;51.024;7.540;2023-08-31T07:17:44;14.80;99.90
15455;DHT22;21057;51.024;7.540;2023-08-31T07:20:11;14.80;99.90
15455;DHT22;21057;51.024;7.540;2023-08-31T07:22:38;14.90;99.90
15455;DHT22;21057;51.024;7.540;2023-08-31T07:25:08;14.90;99.90
15455;DHT22;21057;51.024;7.540;2023-08-31T07:27:35;14.80;99.90
15455;DHT22;21057;51.024;7.540;2023-08-31T07:30:02;14.80;99.90
15455;DHT22;21057;51.024;7.540;2023-08-31T07:32:29;15.00;99.90
15455;DHT22;21057;51.024;7.540;2023-08-31T07:34:56;15.00;99.90
15455;DHT22;21057;51.024;7.540;2023-08-31T07:37:23;15.10;99.90
15455;DHT22;21057;51.024;7.540;2023-08-31T07:39:50;15.20;99.90
15455;DHT22;21057;51.024;7.540;2023-08-31T07:42:18;15.40;99.90
15455;DHT22;21057;51.024;7.540;2023-08-31T07:44:45;15.30;99.90
15455;DHT22;21057;51.024;7.540;2023-08-31T07:47:12;15.50;99.90
15455;DHT22;21057;51.024;7.540;2023-08-31T07:49:39;15.50;99.90
15455;DHT22;21057;51.024;7.540;2023-08-31T07:52:06;15.30;99.90
15455;DHT22;21057;51.024;7.540;2023-08-31T07:54:33;15.60;99.90
15455;DHT22;21057;51.024;7.540;2023-08-31T07:57:00;15.50;99.90
15455;DHT22;21057;51.024;7.540;2023-08-31T07:59:28;15.40;99.90
15455;DHT22;21057;51.024;7.540;2023-08-31T08:01:54;15.50;99.90
15455;DHT22;21057;51.024;7.540;2023-08-31T08:04:21;15.60;99.90
15455;DHT22;21057;51.024;7.540;2023-08-31T08:06:49;15.90;99.90
15455;DHT22;21057;51.024;7.540;2023-08-31T08:09:16;16.00;99.90
15455;DHT22;21057;51.024;7.540;2023-08-31T08:11:43;16.00;99.90
15455;DHT22;21057;51.024;7.540;2023-08-31T08:14:10;15.80;99.90
15455;DHT22;21057;51.024;7.540;2023-08-31T08:16:38;15.60;99.90
15455;DHT22;21057;51.024;7.540;2023-08-31T08:19:06;15.80;99.90
15455;DHT22;21057;51.024;7.540;2023-08-31T08:21:33;16.20;99.90
15455;DHT22;21057;51.024;7.540;2023-08-31T08:24:00;16.30;99.90
15455;DHT22;21057;51.024;7.540;2023-08-31T08:26:27;16.20;99.90
15455;DHT22;21057;51.024;7.540;2023-08-31T08:28:54;16.30;99.90
15455;DHT22;21057;51.024;7.540;2023-08-31T08:31:20;16.30;99.90
15455;DHT22;21057;51.024;7.540;2023-08-31T08:33:48;16.40;99.90
15455;DHT22;21057;51.024;7.540;2023-08-31T08:36:15;16.60;99.90
15455;DHT22;21057;51.024;7.540;2023-08-31T08:38:42;16.70;99.90
15455;DHT22;21057;51.024;7.540;2023-08-31T08:41:10;16.70;99.90
15455;DHT22;21057;51.024;7.540;2023-08-31T08:43:37;17.00;99.90
15455;DHT22;21057;51.024;7.540;2023-08-31T08:46:08;17.00;99.90
15455;DHT22;21057;51.024;7.540;2023-08-31T08:48:36;17.10;99.90
15455;DHT22;21057;51.024;7.540;2023-08-31T08:51:06;17.30;99.90
15455;DHT22;21057;51.024;7.540;2023-08-31T08:53:34;17.30;99.90
15455;DHT22;21057;51.024;7.540;2023-08-31T08:56:01;17.70;99.90
15455;DHT22;21057;51.024;7.540;2023-08-31T08:58:27;17.90;99.90
15455;DHT22;21057;51.024;7.540;2023-08-31T09:00:54;18.00;99.90
15455;DHT22;21057;51.024;7.540;2023-08-31T09:03:22;17.80;99.90
15455;DHT22;21057;51.024;7.540;2023-08-31T09:05:50;17.40;99.90
15455;DHT22;21057;51.024;7.540;2023-08-31T09:08:25;17.60;99.90
15455;DHT22;21057;51.024;7.540;2023-08-31T09:10:55;17.70;99.90
15455;DHT22;21057;51.024;7.540;2023-08-31T09:13:26;17.70;99.90
15455;DHT22;21057;51.024;7.540;2023-08-31T09:15:53;17.90;99.90
15455;DHT22;21057;51.024;7.540;2023-08-31T09:18:23;18.10;99.90
15455;DHT22;21057;51.024;7.540;2023-08-31T09:20:51;18.10;99.90
15455;DHT22;21057;51.024;7.540;2023-08-31T09:23:20;18.20;99.90
15455;DHT22;21057;51.024;7.540;2023-08-31T09:25:48;18.40;99.90
15455;DHT22;21057;51.024;7.540;2023-08-31T09:28:18;18.50;99.90
15455;DHT22;21057;51.024;7.540;2023-08-31T09:30:46;18.90;99.90
15455;DHT22;21057;51.024;7.540;2023-08-31T09:33:16;19.30;99.90
15455;DHT22;21057;51.024;7.540;2023-08-31T09:35:51;19.30;99.90
15455;DHT22;21057;51.024;7.540;2023-08-31T09:38:19;19.50;99.90
15455;DHT22;21057;51.024;7.540;2023-08-31T09:40:46;20.10;99.90
15455;DHT22;21057;51.024;7.540;2023-08-31T09:43:19;21.00;99.90
15455;DHT22;21057;51.024;7.540;2023-08-31T09:45:46;21.60;99.90
15455;DHT22;21057;51.024;7.540;2023-08-31T09:48:15;22.20;99.90
15455;DHT22;21057;51.024;7.540;2023-08-31T09:50:43;22.10;99.90
15455;DHT22;21057;51.024;7.540;2023-08-31T09:53:11;21.80;99.90
15455;DHT22;21057;51.024;7.540;2023-08-31T09:55:40;21.00;99.90
15455;DHT22;21057;51.024;7.540;2023-08-31T09:58:08;20.60;99.90
15455;DHT22;21057;51.024;7.540;2023-08-31T10:00:43;20.50;99.90
15455;DHT22;21057;51.024;7.540;2023-08-31T10:03:10;20.30;99.90
15455;DHT22;21057;51.024;7.540;2023-08-31T10:05:39;20.10;99.90
15455;DHT22;21057;51.024;7.540;2023-08-31T10:08:07;20.30;99.90
15455;DHT22;21057;51.024;7.540;2023-08-31T10:10:35;20.50;99.90
15455;DHT22;21057;51.024;7.540;2023-08-31T10:13:04;20.90;99.90
15455;DHT22;21057;51.024;7.540;2023-08-31T10:15:32;21.30;99.90
15455;DHT22;21057;51.024;7.540;2023-08-31T10:18:01;21.30;99.90
15455;DHT22;21057;51.024;7.540;2023-08-31T10:20:29;21.80;99.90
15455;DHT22;21057;51.024;7.540;2023-08-31T10:22:57;22.10;99.90
15455;DHT22;21057;51.024;7.540;2023-08-31T10:25:24;21.50;99.90
15455;DHT22;21057;51.024;7.540;2023-08-31T10:27:52;21.20;99.90
15455;DHT22;21057;51.024;7.540;2023-08-31T10:30:27;21.00;99.90
15455;DHT22;21057;51.024;7.540;2023-08-31T10:33:22;20.80;99.90
15455;DHT22;21057;51.024;7.540;2023-08-31T10:35:50;20.20;99.90
15455;DHT22;21057;51.024;7.540;2023-08-31T10:38:23;19.70;99.90
15455;DHT22;21057;51.024;7.540;2023-08-31T10:41:01;19.30;99.90
15455;DHT22;21057;51.024;7.540;2023-08-31T10:43:43;19.20;99.90
15455;DHT22;21057;51.024;7.540;2023-08-31T10:46:27;19.10;99.90
15455;DHT22;21057;51.024;7.540;2023-08-31T10:48:55;18.90;99.90
15455;DHT22;21057;51.024;7.540;2023-08-31T10:51:23;19.40;99.90
15455;DHT22;21057;51.024;7.540;2023-08-31T10:53:50;20.50;99.90
15455;DHT22;21057;51.024;7.540;2023-08-31T10:56:17;21.40;99.90
15455;DHT22;21057;51.024;7.540;2023-08-31T10:58:56;21.30;99.90
15455;DHT22;21057;51.024;7.540;2023-08-31T11:01:53;21.70;99.90
15455;DHT22;21057;51.024;7.540;2023-08-31T11:04:20;22.20;99.90
15455;DHT22;21057;51.024;7.540;2023-08-31T11:06:47;22.30;99.90
15455;DHT22;21057;51.024;7.540;2023-08-31T11:09:19;21.80;99.90
15455;DHT22;21057;51.024;7.540;2023-08-31T11:11:46;21.50;99.90
15455;DHT22;21057;51.024;7.540;2023-08-31T11:14:14;21.80;99.90
15455;DHT22;21057;51.024;7.540;2023-08-31T11:16:41;21.80;99.90
15455;DHT22;21057;51.024;7.540;2023-08-31T11:19:11;21.70;99.90
15455;DHT22;21057;51.024;7.540;2023-08-31T11:21:38;20.60;99.90
15455;DHT22;21057;51.024;7.540;2023-08-31T11:24:05;19.80;99.90
15455;DHT22;21057;51.024;7.540;2023-08-31T11:26:34;19.50;99.90
15455;DHT22;21057;51.024;7.540;2023-08-31T11:29:00;19.30;99.90
15455;DHT22;21057;51.024;7.540;2023-08-31T11:31:28;19.30;99.90
15455;DHT22;21057;51.024;7.540;2023-08-31T11:33:54;19.10;99.90
15455;DHT22;21057;51.024;7.540;2023-08-31T11:36:24;19.00;99.90
15455;DHT22;21057;51.024;7.540;2023-08-31T11:38:55;19.20;99.90
15455;DHT22;21057;51.024;7.540;2023-08-31T11:41:29;20.40;99.90
15455;DHT22;21057;51.024;7.540;2023-08-31T11:47:23;21.20;99.90
15455;DHT22;21057;51.024;7.540;2023-08-31T11:50:21;21.30;99.90
15455;DHT22;21057;51.024;7.540;2023-08-31T11:53:04;21.00;99.90
15455;DHT22;21057;51.024;7.540;2023-08-31T11:55:36;20.30;99.90
15455;DHT22;21057;51.024;7.540;2023-08-31T11:58:03;20.00;99.90
15455;DHT22;21057;51.024;7.540;2023-08-31T12:00:34;19.80;99.90
15455;DHT22;21057;51.024;7.540;2023-08-31T12:03:01;20.10;99.90
15455;DHT22;21057;51.024;7.540;2023-08-31T12:05:44;20.40;99.90
15455;DHT22;21057;51.024;7.540;2023-08-31T12:08:12;21.10;99.90
15455;DHT22;21057;51.024;7.540;2023-08-31T12:10:40;21.70;99.90
15455;DHT22;21057;51.024;7.540;2023-08-31T12:13:08;22.50;98.80
15455;DHT22;21057;51.024;7.540;2023-08-31T12:15:35;22.40;97.90
15455;DHT22;21057;51.024;7.540;2023-08-31T12:18:07;22.40;99.00
15455;DHT22;21057;51.024;7.540;2023-08-31T12:20:34;22.30;98.20
15455;DHT22;21057;51.024;7.540;2023-08-31T12:23:07;22.50;97.10
15455;DHT22;21057;51.024;7.540;2023-08-31T12:25:36;22.20;97.50
15455;DHT22;21057;51.024;7.540;2023-08-31T12:28:04;21.30;98.70
15455;DHT22;21057;51.024;7.540;2023-08-31T12:30:31;21.00;99.90
15455;DHT22;21057;51.024;7.540;2023-08-31T12:32:57;20.50;99.90
15455;DHT22;21057;51.024;7.540;2023-08-31T12:35:24;20.20;99.90
15455;DHT22;21057;51.024;7.540;2023-08-31T12:37:51;19.60;99.90
15455;DHT22;21057;51.024;7.540;2023-08-31T12:40:18;19.50;99.90
15455;DHT22;21057;51.024;7.540;2023-08-31T12:42:47;19.50;99.90
15455;DHT22;21057;51.024;7.540;2023-08-31T12:45:14;19.80;99.90
15455;DHT22;21057;51.024;7.540;2023-08-31T12:47:41;19.70;99.90
15455;DHT22;21057;51.024;7.540;2023-08-31T12:50:08;19.90;99.90
15455;DHT22;21057;51.024;7.540;2023-08-31T12:52:35;20.00;99.90
15455;DHT22;21057;51.024;7.540;2023-08-31T12:55:09;20.20;99.90
15455;DHT22;21057;51.024;7.540;2023-08-31T12:57:36;20.10;99.90
15455;DHT22;21057;51.024;7.540;2023-08-31T13:00:06;20.20;99.90
15455;DHT22;21057;51.024;7.540;2023-08-31T13:02:34;21.00;99.90
15455;DHT22;21057;51.024;7.540;2023-08-31T13:05:01;22.20;99.90
15455;DHT22;21057;51.024;7.540;2023-08-31T13:07:28;22.90;99.50
15455;DHT22;21057;51.024;7.540;2023-08-31T13:09:56;23.30;96.90
15455;DHT22;21057;51.024;7.540;2023-08-31T13:12:23;23.60;96.90
15455;DHT22;21057;51.024;7.540;2023-08-31T13:14:50;23.90;96.20
15455;DHT22;21057;51.024;7.540;2023-08-31T13:17:18;24.50;96.50
15455;DHT22;21057;51.024;7.540;2023-08-31T13:19:45;25.00;95.80
15455;DHT22;21057;51.024;7.540;2023-08-31T13:22:12;24.20;93.50
15455;DHT22;21057;51.024;7.540;2023-08-31T13:24:41;24.10;93.90
15455;DHT22;21057;51.024;7.540;2023-08-31T13:27:07;23.50;94.30
15455;DHT22;21057;51.024;7.540;2023-08-31T13:29:34;23.00;95.40
15455;DHT22;21057;51.024;7.540;2023-08-31T13:32:01;22.00;96.80
15455;DHT22;21057;51.024;7.540;2023-08-31T13:34:31;21.30;99.60
15455;DHT22;21057;51.024;7.540;2023-08-31T13:36:58;20.70;99.80
15455;DHT22;21057;51.024;7.540;2023-08-31T13:39:26;20.50;99.90
15455;DHT22;21057;51.024;7.540;2023-08-31T13:41:53;20.40;99.90
15455;DHT22;21057;51.024;7.540;2023-08-31T13:44:20;20.20;99.90
15455;DHT22;21057;51.024;7.540;2023-08-31T13:46:47;20.10;99.90
15455;DHT22;21057;51.024;7.540;2023-08-31T13:49:14;20.20;99.90
15455;DHT22;21057;51.024;7.540;2023-08-31T13:51:43;20.50;99.90
15455;DHT22;21057;51.024;7.540;2023-08-31T13:54:13;20.60;99.90
15455;DHT22;21057;51.024;7.540;2023-08-31T13:56:40;20.60;99.90
15455;DHT22;21057;51.024;7.540;2023-08-31T13:59:09;20.90;99.90
15455;DHT22;21057;51.024;7.540;2023-08-31T14:01:36;21.40;99.90
15455;DHT22;21057;51.024;7.540;2023-08-31T14:04:04;22.10;99.90
15455;DHT22;21057;51.024;7.540;2023-08-31T14:06:31;22.50;99.90
15455;DHT22;21057;51.024;7.540;2023-08-31T14:09:00;22.90;99.00
15455;DHT22;21057;51.024;7.540;2023-08-31T14:11:30;22.60;98.30
15455;DHT22;21057;51.024;7.540;2023-08-31T14:14:02;22.90;98.40
15455;DHT22;21057;51.024;7.540;2023-08-31T14:16:31;22.10;98.20
15455;DHT22;21057;51.024;7.540;2023-08-31T14:18:59;21.70;99.30
15455;DHT22;21057;51.024;7.540;2023-08-31T14:21:26;21.30;99.90
15455;DHT22;21057;51.024;7.540;2023-08-31T14:23:52;21.10;99.90
15455;DHT22;21057;51.024;7.540;2023-08-31T14:26:22;20.90;99.90
15455;DHT22;21057;51.024;7.540;2023-08-31T14:28:50;20.70;99.90
15455;DHT22;21057;51.024;7.540;2023-08-31T14:31:17;20.80;99.90
15455;DHT22;21057;51.024;7.540;2023-08-31T14:33:44;20.80;99.90
15455;DHT22;21057;51.024;7.540;2023-08-31T14:36:14;20.50;99.90
15455;DHT22;21057;51.024;7.540;2023-08-31T14:38:42;20.70;99.90
15455;DHT22;21057;51.024;7.540;2023-08-31T14:41:10;20.50;99.90
15455;DHT22;21057;51.024;7.540;2023-08-31T14:43:39;20.10;99.90
15455;DHT22;21057;51.024;7.540;2023-08-31T14:46:06;20.50;99.90
15455;DHT22;21057;51.024;7.540;2023-08-31T14:48:33;20.80;99.90
15455;DHT22;21057;51.024;7.540;2023-08-31T14:50:59;21.00;99.90
15455;DHT22;21057;51.024;7.540;2023-08-31T14:53:26;20.80;99.90
15455;DHT22;21057;51.024;7.540;2023-08-31T14:55:53;21.00;99.90
15455;DHT22;21057;51.024;7.540;2023-08-31T14:58:20;21.20;99.90
15455;DHT22;21057;51.024;7.540;2023-08-31T15:00:49;21.40;99.90
15455;DHT22;21057;51.024;7.540;2023-08-31T15:03:16;22.00;99.90
15455;DHT22;21057;51.024;7.540;2023-08-31T15:05:48;22.00;98.80
15455;DHT22;21057;51.024;7.540;2023-08-31T15:08:15;21.70;97.60
15455;DHT22;21057;51.024;7.540;2023-08-31T15:10:42;21.80;99.40
15455;DHT22;21057;51.024;7.540;2023-08-31T15:13:09;21.50;98.50
15455;DHT22;21057;51.024;7.540;2023-08-31T15:15:36;21.40;99.90
15455;DHT22;21057;51.024;7.540;2023-08-31T15:18:04;21.10;98.50
15455;DHT22;21057;51.024;7.540;2023-08-31T15:20:31;20.90;99.60
15455;DHT22;21057;51.024;7.540;2023-08-31T15:22:58;20.40;99.70
15455;DHT22;21057;51.024;7.540;2023-08-31T15:25:31;20.20;99.90
15455;DHT22;21057;51.024;7.540;2023-08-31T15:27:59;20.20;99.90
15455;DHT22;21057;51.024;7.540;2023-08-31T15:30:26;20.30;99.90
15455;DHT22;21057;51.024;7.540;2023-08-31T15:32:55;20.60;99.90
15455;DHT22;21057;51.024;7.540;2023-08-31T15:35:23;21.00;99.90
15455;DHT22;21057;51.024;7.540;2023-08-31T15:37:50;21.30;99.90
15455;DHT22;21057;51.024;7.540;2023-08-31T15:40:18;21.50;99.90